createdAt,value
2024-05-09T00:01:24.418Z,101552.28
2024-05-09T00:03:56.259Z,101555.44
2024-05-09T00:06:35.364Z,101556.25
2024-05-09T00:09:07.222Z,101557.31
2024-05-09T00:11:42.694Z,101553.34
2024-05-09T00:14:13.543Z,101544.53
2024-05-09T00:16:44.543Z,101554.00
2024-05-09T00:19:15.825Z,101547.50
2024-05-09T00:21:55.970Z,101543.00
2024-05-09T00:24:26.725Z,101543.09
2024-05-09T00:26:57.502Z,101532.09
2024-05-09T00:29:30.974Z,101546.44
2024-05-09T00:32:01.573Z,101547.75
2024-05-09T00:34:31.908Z,101551.25
2024-05-09T00:37:05.747Z,101549.00
2024-05-09T00:39:36.396Z,101556.25
2024-05-09T00:42:07.328Z,101549.69
2024-05-09T00:44:37.608Z,101545.63
2024-05-09T00:47:10.526Z,101551.84
2024-05-09T00:49:41.149Z,101546.00
2024-05-09T00:52:14.719Z,101546.47
2024-05-09T00:54:45.821Z,101549.44
2024-05-09T00:57:16.776Z,101552.44
2024-05-09T00:59:47.051Z,101552.38
2024-05-09T01:02:18.945Z,101553.50
2024-05-09T01:04:50.268Z,101548.69
2024-05-09T01:07:23.858Z,101549.75
2024-05-09T01:09:56.567Z,101543.16
2024-05-09T01:12:27.698Z,101540.28
2024-05-09T01:14:58.182Z,101535.19
2024-05-09T01:17:28.913Z,101532.34
2024-05-09T01:20:01.904Z,101528.97
2024-05-09T01:22:37.143Z,101537.72
2024-05-09T01:25:10.337Z,101535.16
2024-05-09T01:27:42.793Z,101530.56
2024-05-09T01:30:17.381Z,101526.22
2024-05-09T01:32:52.065Z,101514.59
2024-05-09T01:35:23.883Z,101519.63
2024-05-09T01:37:54.346Z,101512.81
2024-05-09T01:40:36.327Z,101523.78
2024-05-09T01:43:11.056Z,101520.94
2024-05-09T01:45:42.399Z,101523.91
2024-05-09T01:48:12.959Z,101518.59
2024-05-09T01:50:43.802Z,101521.91
2024-05-09T01:53:17.284Z,101514.56
2024-05-09T01:55:50.222Z,101519.88
2024-05-09T01:58:20.719Z,101515.81
2024-05-09T02:00:51.555Z,101517.09
2024-05-09T02:03:21.826Z,101521.38
2024-05-09T02:05:52.700Z,101519.31
2024-05-09T02:08:24.505Z,101517.53
2024-05-09T02:10:57.330Z,101517.97
2024-05-09T02:13:27.562Z,101513.16
2024-05-09T02:15:58.881Z,101525.44
2024-05-09T02:18:28.962Z,101532.50
2024-05-09T02:20:59.490Z,101522.88
2024-05-09T02:23:29.996Z,101529.44
2024-05-09T02:26:02.929Z,101530.91
2024-05-09T02:28:32.999Z,101531.69
2024-05-09T02:31:03.133Z,101534.44
2024-05-09T02:33:33.855Z,101531.47
2024-05-09T02:36:04.506Z,101529.94
2024-05-09T02:38:32.098Z,101535.72
2024-05-09T02:41:05.162Z,101529.19
2024-05-09T02:43:32.931Z,101531.72
2024-05-09T02:46:03.562Z,101525.03
2024-05-09T02:48:31.549Z,101527.66
2024-05-09T02:51:04.065Z,101520.72
2024-05-09T02:53:31.700Z,101523.28
2024-05-09T02:56:04.630Z,101523.16
2024-05-09T02:58:32.087Z,101527.28
2024-05-09T03:01:02.280Z,101524.28
2024-05-09T03:03:30.600Z,101530.38
2024-05-09T03:06:05.891Z,101527.38
2024-05-09T03:08:35.257Z,101528.00
2024-05-09T03:11:08.782Z,101537.44
2024-05-09T03:13:41.494Z,101538.56
2024-05-09T03:16:11.928Z,101542.69
2024-05-09T03:18:40.937Z,101540.00
2024-05-09T03:21:11.510Z,101536.88
2024-05-09T03:23:41.110Z,101537.00
2024-05-09T03:26:18.722Z,101536.66
2024-05-09T03:28:46.961Z,101535.31
2024-05-09T03:31:17.218Z,101539.69
2024-05-09T03:33:44.913Z,101540.56
2024-05-09T03:36:15.416Z,101542.19
2024-05-09T03:38:45.587Z,101533.00
2024-05-09T03:41:18.310Z,101537.06
2024-05-09T03:43:49.010Z,101542.88
2024-05-09T03:46:16.541Z,101537.13
2024-05-09T03:48:47.248Z,101532.41
2024-05-09T03:51:14.916Z,101542.53
2024-05-09T03:53:45.102Z,101538.31
2024-05-09T03:56:15.379Z,101537.09
2024-05-09T03:58:46.066Z,101533.03
2024-05-09T04:01:13.585Z,101542.16
2024-05-09T04:03:44.043Z,101542.66
2024-05-09T04:06:11.667Z,101543.44
2024-05-09T04:08:41.846Z,101545.63
2024-05-09T04:11:09.474Z,101545.84
2024-05-09T04:13:43.104Z,101545.31
2024-05-09T04:16:13.789Z,101553.88
2024-05-09T04:18:44.063Z,101551.34
2024-05-09T04:21:16.956Z,101557.88
2024-05-09T04:23:45.247Z,101551.59
2024-05-09T04:26:15.676Z,101556.63
2024-05-09T04:28:45.945Z,101559.41
2024-05-09T04:31:16.145Z,101553.09
2024-05-09T04:33:44.068Z,101557.09
2024-05-09T04:36:14.762Z,101552.34
2024-05-09T04:38:42.235Z,101555.13
2024-05-09T04:41:12.459Z,101551.81
2024-05-09T04:43:41.641Z,101564.09
2024-05-09T04:46:14.326Z,101568.31
2024-05-09T04:48:41.910Z,101571.50
2024-05-09T04:51:12.468Z,101579.38
2024-05-09T04:53:40.197Z,101566.63
2024-05-09T04:56:12.421Z,101574.34
2024-05-09T04:58:40.011Z,101575.03
2024-05-09T05:01:13.885Z,101574.44
2024-05-09T05:03:42.089Z,101567.13
2024-05-09T05:06:12.417Z,101568.75
2024-05-09T05:08:40.255Z,101569.72
2024-05-09T05:11:11.432Z,101564.56
2024-05-09T05:13:41.529Z,101572.38
2024-05-09T05:16:15.085Z,101575.06
2024-05-09T05:18:44.444Z,101576.69
2024-05-09T05:21:15.140Z,101575.81
2024-05-09T05:23:43.100Z,101575.81
2024-05-09T05:26:13.555Z,101580.59
2024-05-09T05:28:41.080Z,101586.66
2024-05-09T05:31:14.208Z,101583.09
2024-05-09T05:33:42.102Z,101579.00
2024-05-09T05:36:12.579Z,101585.84
2024-05-09T05:38:40.177Z,101580.22
2024-05-09T05:41:10.556Z,101584.09
2024-05-09T05:43:38.435Z,101589.63
2024-05-09T05:46:08.550Z,101581.13
2024-05-09T05:48:38.705Z,101579.88
2024-05-09T05:51:09.925Z,101575.50
2024-05-09T05:53:40.189Z,101580.56
2024-05-09T05:56:12.895Z,101588.13
2024-05-09T13:36:31.343Z,101328.38
2024-05-09T14:20:30.059Z,101280.53
2024-05-09T18:25:34.418Z,101140.63
2024-05-09T18:54:04.500Z,101158.31
2024-05-09T18:56:33.215Z,101150.63
2024-05-09T18:59:31.144Z,101158.41
2024-05-09T19:03:14.925Z,101165.50
2024-05-09T19:05:58.759Z,101168.28
2024-05-09T19:08:49.505Z,101170.88
2024-05-09T19:11:19.905Z,101172.19
2024-05-09T19:13:47.500Z,101169.47
2024-05-09T19:16:18.838Z,101173.25
2024-05-09T19:18:46.750Z,101178.50
2024-05-09T19:21:22.736Z,101180.06
2024-05-09T19:23:52.446Z,101181.56
2024-05-09T19:26:22.853Z,101192.28
2024-05-09T19:28:53.171Z,101181.66
2024-05-09T19:31:23.730Z,101186.44
2024-05-09T19:33:53.947Z,101189.31
2024-05-09T19:45:50.390Z,101192.84
2024-05-09T19:49:02.652Z,101194.91
2024-05-09T20:00:12.087Z,101193.97
2024-05-09T20:02:51.144Z,101188.81
2024-05-09T20:05:21.780Z,101186.59
2024-05-09T20:07:49.722Z,101189.28
2024-05-09T20:10:32.704Z,101186.66
2024-05-09T20:13:11.786Z,101185.66
2024-05-09T20:15:42.036Z,101187.50
2024-05-09T20:18:13.799Z,101186.44
2024-05-09T20:20:45.339Z,101197.78
2024-05-09T20:23:16.201Z,101191.91
2024-05-09T20:25:47.884Z,101200.91
2024-05-09T20:28:15.570Z,101202.03
2024-05-09T20:30:46.148Z,101194.00
2024-05-09T20:33:17.822Z,101200.56
2024-05-09T20:35:48.354Z,101203.56
2024-05-09T20:38:15.901Z,101203.94
2024-05-09T20:40:47.376Z,101200.81
2024-05-09T20:43:15.221Z,101207.28
2024-05-09T20:45:48.132Z,101203.94
2024-05-09T20:48:18.484Z,101199.31
2024-05-09T20:50:52.212Z,101207.41
2024-05-09T20:53:20.081Z,101205.94
2024-05-09T20:55:50.607Z,101204.88
2024-05-09T20:58:18.399Z,101203.22
2024-05-09T21:00:49.097Z,101209.03
2024-05-09T21:03:19.656Z,101210.34
2024-05-09T21:05:51.174Z,101205.53
2024-05-09T21:08:18.802Z,101199.44
2024-05-09T21:10:54.459Z,101202.56
2024-05-09T21:13:22.391Z,101203.50
2024-05-09T21:15:53.861Z,101192.00
2024-05-09T21:18:23.986Z,101199.63
2024-05-09T21:20:54.134Z,101199.09
2024-05-09T21:23:24.396Z,101195.72
2024-05-09T21:25:54.528Z,101192.22
2024-05-09T21:28:23.221Z,101195.38
2024-05-09T21:30:56.111Z,101199.44
2024-05-09T21:33:26.347Z,101202.44
2024-05-09T21:35:57.419Z,101200.03
2024-05-09T21:38:28.624Z,101209.88
2024-05-09T21:41:00.079Z,101201.91
2024-05-09T21:43:29.692Z,101201.72
2024-05-09T21:46:00.119Z,101194.66
2024-05-09T21:48:30.946Z,101198.75
2024-05-09T21:51:01.202Z,101196.53
2024-05-09T21:53:29.647Z,101193.53
2024-05-09T21:56:09.138Z,101187.78
2024-05-09T21:58:40.575Z,101190.03
2024-05-09T22:01:09.144Z,101186.88
2024-05-09T22:03:42.389Z,101182.41
2024-05-09T22:06:09.886Z,101178.66
2024-05-09T22:08:41.584Z,101178.84
2024-05-09T22:11:10.974Z,101182.75
2024-05-09T22:13:41.120Z,101187.56
2024-05-09T22:16:08.918Z,101189.41
2024-05-09T22:18:41.889Z,101182.75
2024-05-09T22:21:14.042Z,101193.69
2024-05-09T22:23:45.506Z,101191.25
2024-05-09T22:26:13.044Z,101199.38
2024-05-09T22:28:43.280Z,101183.78
2024-05-09T22:31:11.382Z,101190.47
2024-05-09T22:33:47.821Z,101191.59
2024-05-09T22:36:19.243Z,101183.03
2024-05-09T22:38:51.394Z,101182.09
2024-05-09T22:41:19.181Z,101186.44
2024-05-09T22:43:49.567Z,101177.50
2024-05-09T22:46:17.197Z,101190.34
2024-05-09T22:48:47.775Z,101179.78
2024-05-09T22:51:15.794Z,101182.00
2024-05-09T22:53:48.485Z,101182.94
2024-05-09T22:56:26.762Z,101180.50
2024-05-09T22:59:03.321Z,101176.06
2024-05-09T23:01:31.201Z,101178.41
2024-05-09T23:04:02.513Z,101181.56
2024-05-09T23:06:31.710Z,101186.47
2024-05-09T23:09:08.204Z,101187.06
2024-05-09T23:11:36.558Z,101175.84
2024-05-09T23:14:08.826Z,101184.88
2024-05-09T23:16:36.308Z,101187.59
2024-05-09T23:19:07.240Z,101187.03
2024-05-09T23:21:38.451Z,101184.56
2024-05-09T23:24:12.085Z,101184.31
2024-05-09T23:26:42.410Z,101180.00
2024-05-09T23:29:12.615Z,101179.19
2024-05-09T23:31:41.532Z,101187.47
2024-05-09T23:34:14.523Z,101180.75
2024-05-09T23:36:44.423Z,101192.38
2024-05-09T23:39:17.411Z,101181.75
2024-05-09T23:41:46.074Z,101179.13
2024-05-09T23:44:16.188Z,101183.72
2024-05-09T23:54:24.476Z,101187.84
2024-05-09T23:57:21.652Z,101185.72
